createdAt,value
2018-11-12T00:00:25.626Z,9.50
2018-11-12T00:02:57.842Z,10.20
2018-11-12T00:05:26.826Z,9.80
2018-11-12T00:07:56.034Z,11.40
2018-11-12T00:12:57.874Z,11.40
2018-11-12T00:25:33.537Z,11.20
2018-11-12T00:30:35.832Z,10.80
2018-11-12T00:40:31.370Z,10.80
2018-11-12T00:43:01.252Z,10.90
2018-11-12T00:47:59.487Z,11.00
2018-11-12T00:50:28.515Z,10.90
2018-11-12T00:57:54.832Z,11.20
2018-11-12T01:02:53.527Z,11.20
2018-11-12T01:10:33.191Z,11.30
2018-11-12T01:13:02.145Z,11.40
2018-11-12T01:20:33.342Z,11.50
2018-11-12T01:35:29.258Z,11.30
2018-11-12T01:37:58.537Z,11.40
2018-11-12T01:47:53.774Z,11.40
2018-11-12T01:52:51.410Z,11.50
2018-11-12T01:57:52.722Z,11.30
2018-11-12T02:02:55.675Z,11.10
2018-11-12T02:05:24.642Z,11.10
2018-11-12T02:10:27.193Z,11.10
2018-11-12T02:12:56.293Z,11.10
2018-11-12T02:15:28.873Z,11.00
2018-11-12T02:17:57.805Z,11.00
2018-11-12T02:20:26.757Z,10.90
2018-11-12T02:22:56.171Z,10.90
2018-11-12T02:25:25.130Z,10.80
2018-11-12T02:32:57.965Z,11.10
2018-11-12T02:35:27.821Z,11.10
2018-11-12T02:37:57.206Z,11.10
2018-11-12T02:42:56.983Z,11.10
2018-11-12T02:47:55.037Z,11.10
2018-11-12T02:52:52.832Z,10.90
2018-11-12T02:55:26.164Z,11.10
2018-11-12T03:00:27.912Z,11.10
2018-11-12T03:05:31.542Z,11.10
2018-11-12T03:08:00.861Z,11.00
2018-11-12T03:13:01.390Z,11.00
2018-11-12T03:18:11.562Z,11.00
2018-11-12T03:20:40.554Z,11.00
2018-11-12T03:25:41.741Z,11.00
2018-11-12T03:28:10.690Z,11.00
2018-11-12T03:30:44.254Z,11.00
2018-11-12T03:35:45.415Z,11.00
2018-11-12T03:40:46.781Z,11.00
2018-11-12T03:43:16.046Z,11.00
2018-11-12T03:45:49.746Z,10.90
2018-11-12T03:50:47.864Z,10.90
2018-11-12T03:55:49.471Z,10.90
2018-11-12T03:58:18.960Z,10.90
2018-11-12T04:00:47.954Z,10.90
2018-11-12T04:05:46.413Z,10.80
2018-11-12T04:08:15.364Z,10.80
2018-11-12T04:10:44.580Z,10.80
2018-11-12T04:13:13.521Z,10.40
2018-11-12T04:20:39.778Z,10.80
2018-11-12T04:23:13.082Z,10.80
2018-11-12T04:25:43.327Z,11.90
2018-11-12T04:28:16.229Z,10.80
2018-11-12T04:33:17.847Z,10.80
2018-11-12T04:38:20.711Z,10.70
2018-11-12T04:40:49.959Z,10.70
2018-11-12T04:48:30.582Z,10.50
2018-11-12T04:53:28.468Z,10.00
2018-11-12T04:58:31.820Z,10.50
2018-11-12T05:03:32.759Z,10.60
2018-11-12T05:08:36.842Z,10.50
2018-11-12T05:13:47.105Z,10.50
2018-11-12T05:16:16.371Z,10.40
2018-11-12T05:18:45.562Z,9.00
2018-11-12T05:23:43.639Z,10.50
2018-11-12T05:26:12.570Z,10.50
2018-11-12T05:31:22.901Z,10.40
2018-11-12T05:38:51.870Z,10.50
2018-11-12T05:48:57.701Z,10.50
2018-11-12T05:51:26.981Z,10.40
2018-11-12T05:59:03.216Z,10.20
2018-11-12T06:01:32.198Z,10.40
2018-11-12T06:04:05.574Z,10.30
2018-11-12T06:06:34.870Z,10.40
2018-11-12T06:09:11.227Z,10.50
2018-11-12T06:11:40.643Z,10.50
2018-11-12T06:16:42.041Z,10.50
2018-11-12T06:21:43.478Z,10.50
2018-11-12T06:24:16.803Z,10.60
2018-11-12T06:31:48.490Z,10.60
2018-11-12T06:36:50.096Z,10.60
2018-11-12T06:39:23.491Z,10.40
2018-11-12T06:46:55.076Z,10.40
2018-11-12T06:59:33.496Z,10.40
2018-11-12T07:12:07.251Z,10.40
2018-11-12T07:22:07.570Z,10.30
2018-11-12T07:39:30.603Z,11.40
2018-11-12T07:47:10.300Z,11.20
2018-11-12T07:52:08.370Z,10.90
2018-11-12T07:57:07.151Z,11.00
2018-11-12T07:59:37.305Z,10.30
2018-11-12T08:07:14.084Z,10.60
2018-11-12T08:09:43.487Z,10.00
2018-11-12T08:17:18.654Z,10.50
2018-11-12T08:22:20.906Z,12.80
2018-11-12T08:24:50.175Z,10.70
2018-11-12T08:27:24.569Z,10.70
2018-11-12T08:37:33.774Z,11.30
2018-11-12T08:40:03.668Z,11.30
2018-11-12T08:45:05.685Z,11.50
2018-11-12T08:50:05.810Z,11.70
2018-11-12T09:02:43.458Z,12.00
2018-11-12T09:07:47.525Z,12.00
2018-11-12T09:12:49.578Z,12.10
2018-11-12T09:17:50.945Z,12.30
2018-11-12T09:35:38.310Z,13.20
2018-11-12T09:38:07.605Z,13.40
2018-11-12T09:40:38.847Z,13.50
2018-11-12T09:45:36.759Z,13.70
2018-11-12T09:50:39.828Z,14.10
2018-11-12T09:58:15.260Z,14.50
2018-11-12T10:00:44.570Z,14.70
2018-11-12T10:03:17.440Z,14.90
2018-11-12T10:05:47.298Z,15.10
2018-11-12T10:08:21.335Z,15.40
2018-11-12T10:10:53.254Z,15.60
2018-11-12T10:13:29.778Z,15.80
2018-11-12T10:15:59.993Z,16.00
2018-11-12T10:23:26.405Z,16.40
2018-11-12T10:28:37.266Z,16.50
2018-11-12T10:33:35.958Z,16.70
2018-11-12T10:38:35.036Z,16.70
2018-11-12T10:41:04.853Z,16.80
2018-11-12T10:43:38.101Z,16.50
2018-11-12T10:46:08.478Z,16.30
2018-11-12T10:56:10.370Z,16.30
2018-11-12T10:58:51.218Z,16.10
2018-11-12T11:04:00.470Z,15.90
2018-11-12T11:06:29.909Z,15.80
2018-11-12T11:11:27.699Z,13.90
2018-11-12T11:13:57.382Z,15.60
2018-11-12T11:21:26.794Z,15.70
2018-11-12T11:29:01.805Z,13.70
2018-11-12T11:31:31.654Z,16.10
2018-11-12T11:36:33.905Z,16.30
2018-11-12T11:44:11.538Z,17.00
2018-11-12T11:54:18.814Z,15.40
2018-11-12T11:56:48.350Z,15.30
2018-11-12T11:59:22.118Z,15.30
2018-11-12T12:01:51.375Z,15.50
2018-11-12T12:04:22.442Z,15.40
2018-11-12T12:06:52.576Z,15.40
2018-11-12T12:24:34.024Z,15.40
2018-11-12T12:27:03.240Z,15.20
2018-11-12T12:32:08.063Z,14.90
2018-11-12T12:34:37.085Z,14.80
2018-11-12T12:47:11.453Z,13.90
2018-11-12T12:52:22.761Z,15.60
2018-11-12T12:54:51.739Z,13.40
2018-11-12T12:57:20.799Z,15.30
2018-11-12T13:04:53.687Z,12.90
2018-11-12T13:07:23.629Z,12.80
2018-11-12T13:09:56.813Z,12.30
2018-11-12T13:12:25.835Z,12.60
2018-11-12T13:15:08.436Z,12.60
2018-11-12T13:22:36.375Z,12.40
2018-11-12T13:27:37.562Z,12.30
2018-11-12T13:30:12.447Z,12.40
2018-11-12T13:37:43.635Z,12.20
2018-11-12T13:47:46.846Z,12.00
2018-11-12T13:55:23.274Z,11.80
2018-11-12T14:00:27.000Z,11.90
2018-11-12T14:07:57.155Z,11.70
2018-11-12T14:15:33.715Z,11.60
2018-11-12T14:18:03.554Z,11.60
2018-11-12T14:25:38.679Z,11.60
2018-11-12T14:28:07.874Z,11.60
2018-11-12T14:30:40.503Z,9.60
2018-11-12T14:40:48.514Z,11.60
2018-11-12T14:43:18.831Z,11.50
2018-11-12T14:45:47.869Z,11.50
2018-11-12T14:48:17.934Z,11.50
2018-11-12T14:51:04.432Z,11.60
2018-11-12T14:53:34.642Z,11.50
2018-11-12T14:58:33.813Z,11.40
2018-11-12T15:01:03.682Z,10.00
2018-11-12T15:03:32.804Z,11.40
2018-11-12T15:11:04.739Z,10.70
2018-11-12T15:13:34.334Z,11.40
2018-11-12T15:16:05.556Z,11.30
2018-11-12T15:21:09.151Z,11.30
2018-11-12T15:23:38.608Z,11.30
2018-11-12T15:28:40.152Z,11.20
2018-11-12T15:41:21.732Z,11.20
2018-11-12T15:46:20.569Z,11.30
2018-11-12T15:48:50.279Z,11.30
2018-11-12T15:56:26.256Z,11.20
2018-11-12T15:58:57.203Z,11.10
2018-11-12T16:08:58.662Z,11.10
2018-11-12T16:11:32.359Z,11.10
2018-11-12T16:18:53.739Z,11.00
2018-11-12T16:21:23.794Z,11.10
2018-11-12T16:23:54.375Z,11.20
2018-11-12T16:26:23.389Z,11.10
2018-11-12T16:28:53.296Z,11.10
2018-11-12T16:38:56.406Z,11.10
2018-11-12T16:41:26.110Z,11.20
2018-11-12T16:43:56.556Z,11.10
2018-11-12T16:48:56.786Z,11.10
2018-11-12T16:51:26.397Z,11.10
2018-11-12T16:56:25.670Z,12.70
2018-11-12T16:58:57.983Z,11.10
2018-11-12T17:04:01.000Z,11.00
2018-11-12T17:09:04.649Z,11.10
2018-11-12T17:11:33.730Z,11.10
2018-11-12T17:14:08.645Z,11.10
2018-11-12T17:41:48.787Z,11.00
2018-11-12T17:51:57.411Z,10.80
2018-11-12T17:54:27.021Z,10.80
2018-11-12T17:56:57.057Z,13.30
2018-11-12T17:59:29.858Z,10.90
2018-11-12T18:04:40.163Z,10.80
2018-11-12T18:09:39.096Z,10.80
2018-11-12T18:12:09.766Z,10.90
2018-11-12T18:14:40.114Z,13.20
2018-11-12T18:19:39.801Z,10.90
2018-11-12T18:22:09.706Z,10.90
2018-11-12T18:27:10.703Z,10.80
2018-11-12T18:37:16.158Z,10.70
2018-11-12T18:42:20.689Z,10.60
2018-11-12T18:44:57.390Z,10.60
2018-11-12T18:55:00.539Z,10.70
2018-11-12T18:57:30.272Z,10.70
2018-11-12T19:02:33.227Z,10.60
2018-11-12T19:10:12.030Z,10.70
2018-11-12T19:15:16.484Z,10.70
2018-11-12T19:25:17.869Z,12.60
2018-11-12T19:27:47.242Z,10.70
2018-11-12T19:32:51.690Z,10.50
2018-11-12T19:35:25.066Z,10.50
2018-11-12T19:40:27.167Z,10.40
2018-11-12T19:42:57.626Z,10.50
2018-11-12T19:45:28.531Z,10.50
2018-11-12T19:50:33.037Z,10.50
2018-11-12T19:53:03.412Z,10.50
2018-11-12T19:58:13.703Z,10.50
2018-11-12T20:10:41.226Z,10.60
2018-11-12T20:13:12.209Z,10.70
2018-11-12T20:15:43.382Z,10.60
2018-11-12T20:18:12.555Z,10.70
2018-11-12T20:23:16.491Z,10.70
2018-11-12T20:33:20.313Z,10.60
2018-11-12T20:51:06.491Z,10.50
2018-11-12T21:01:09.755Z,10.40
2018-11-12T21:06:21.679Z,10.30
2018-11-12T21:11:20.850Z,10.30
2018-11-12T21:13:50.465Z,10.30
2018-11-12T21:16:20.385Z,10.30
2018-11-12T21:28:52.394Z,10.40
2018-11-12T21:31:24.458Z,10.40
2018-11-12T21:36:29.644Z,10.50
2018-11-12T21:38:59.033Z,10.30
2018-11-12T21:41:29.390Z,10.30
2018-11-12T21:46:32.292Z,10.20
2018-11-12T21:49:02.350Z,10.20
2018-11-12T21:51:38.471Z,10.20
2018-11-12T21:56:39.712Z,10.30
2018-11-12T21:59:08.982Z,10.40
2018-11-12T22:01:41.238Z,10.40
2018-11-12T22:06:43.390Z,10.40
2018-11-12T22:11:45.836Z,10.20
2018-11-12T22:16:53.128Z,10.10
2018-11-12T22:21:53.726Z,10.10
2018-11-12T22:24:22.943Z,10.00
2018-11-12T22:29:23.513Z,10.00
2018-11-12T22:31:58.119Z,8.80
2018-11-12T22:37:00.194Z,10.00
2018-11-12T22:42:04.525Z,10.00
2018-11-12T22:44:36.491Z,10.00
2018-11-12T22:47:06.571Z,10.10
2018-11-12T22:52:17.105Z,10.00
2018-11-12T22:54:46.722Z,10.00
2018-11-12T22:59:44.639Z,8.50
2018-11-12T23:04:42.718Z,9.90
2018-11-12T23:07:16.816Z,9.90
2018-11-12T23:29:48.078Z,10.00
2018-11-12T23:34:46.161Z,10.10
2018-11-12T23:42:12.215Z,9.80
2018-11-12T23:44:42.076Z,11.10
2018-11-12T23:47:11.702Z,9.80
2018-11-12T23:49:40.980Z,9.80
2018-11-12T23:54:42.740Z,9.90
2018-11-12T23:59:44.183Z,9.90
